sensor_id;sensor_type;location;lat;lon;timestamp;pressure;altitude;pressure_sealevel;temperature;humidity
16030;BME280;34770;49.272;11.070;2023-09-19T00:01:13;97258.28;;;16.26;92.01
16030;BME280;34770;49.272;11.070;2023-09-19T00:07:14;97255.78;;;16.39;91.20
16030;BME280;34770;49.272;11.070;2023-09-19T00:10:41;97265.00;;;16.38;91.50
16030;BME280;34770;49.272;11.070;2023-09-19T00:17:03;97243.94;;;16.24;91.73
16030;BME280;34770;49.272;11.070;2023-09-19T00:20:09;97272.84;;;16.41;90.83
16030;BME280;34770;49.272;11.070;2023-09-19T00:23:48;97270.56;;;16.30;90.45
16030;BME280;34770;49.272;11.070;2023-09-19T00:33:34;97280.09;;;16.49;89.92
16030;BME280;34770;49.272;11.070;2023-09-19T00:36:46;97265.06;;;16.30;90.08
16030;BME280;34770;49.272;11.070;2023-09-19T00:55:53;97306.41;;;16.12;90.60
16030;BME280;34770;49.272;11.070;2023-09-19T00:59:24;97272.81;;;15.81;90.84
16030;BME280;34770;49.272;11.070;2023-09-19T01:02:17;97302.72;;;16.05;90.14
16030;BME280;34770;49.272;11.070;2023-09-19T01:20:25;97308.03;;;16.21;87.95
16030;BME280;34770;49.272;11.070;2023-09-19T01:32:50;97289.94;;;16.20;89.44
16030;BME280;34770;49.272;11.070;2023-09-19T01:35:26;97294.19;;;16.23;89.92
16030;BME280;34770;49.272;11.070;2023-09-19T01:37:59;97298.63;;;16.24;90.20
16030;BME280;34770;49.272;11.070;2023-09-19T01:40:24;97301.34;;;16.24;90.70
16030;BME280;34770;49.272;11.070;2023-09-19T01:49:33;97312.34;;;16.16;90.95
16030;BME280;34770;49.272;11.070;2023-09-19T01:52:14;97312.53;;;16.14;91.06
16030;BME280;34770;49.272;11.070;2023-09-19T01:54:58;97306.63;;;16.03;90.21
16030;BME280;34770;49.272;11.070;2023-09-19T01:57:37;97305.81;;;16.02;91.19
16030;BME280;34770;49.272;11.070;2023-09-19T02:00:10;97307.69;;;16.02;91.51
16030;BME280;34770;49.272;11.070;2023-09-19T02:02:43;97323.53;;;16.06;91.75
16030;BME280;34770;49.272;11.070;2023-09-19T02:05:10;97301.16;;;16.03;91.23
16030;BME280;34770;49.272;11.070;2023-09-19T02:07:35;97307.47;;;16.03;91.13
16030;BME280;34770;49.272;11.070;2023-09-19T02:10:04;97290.31;;;15.95;91.13
16030;BME280;34770;49.272;11.070;2023-09-19T02:12:36;97320.91;;;16.13;90.42
16030;BME280;34770;49.272;11.070;2023-09-19T02:15:28;97337.19;;;16.06;90.41
16030;BME280;34770;49.272;11.070;2023-09-19T02:18:43;97338.53;;;16.10;90.72
16030;BME280;34770;49.272;11.070;2023-09-19T02:24:18;97326.31;;;15.98;91.12
16030;BME280;34770;49.272;11.070;2023-09-19T02:32:43;97318.75;;;15.78;91.25
16030;BME280;34770;49.272;11.070;2023-09-19T02:38:31;97349.34;;;16.04;91.08
16030;BME280;34770;49.272;11.070;2023-09-19T02:40:58;97358.53;;;16.11;91.13
16030;BME280;34770;49.272;11.070;2023-09-19T02:43:27;97356.88;;;16.02;91.10
16030;BME280;34770;49.272;11.070;2023-09-19T03:40:27;97404.16;;;15.80;92.47
16030;BME280;34770;49.272;11.070;2023-09-19T03:43:50;97412.16;;;15.81;93.03
16030;BME280;34770;49.272;11.070;2023-09-19T03:50:24;97413.97;;;15.89;93.16
16030;BME280;34770;49.272;11.070;2023-09-19T04:05:29;97397.91;;;15.94;93.66
16030;BME280;34770;49.272;11.070;2023-09-19T04:08:20;97398.78;;;15.86;92.46
16030;BME280;34770;49.272;11.070;2023-09-19T04:10:53;97404.59;;;15.91;90.80
16030;BME280;34770;49.272;11.070;2023-09-19T04:13:27;97404.31;;;15.78;91.03
16030;BME280;34770;49.272;11.070;2023-09-19T04:16:29;97415.22;;;15.78;91.38
16030;BME280;34770;49.272;11.070;2023-09-19T04:19:26;97353.44;;;15.30;90.63
16030;BME280;34770;49.272;11.070;2023-09-19T04:21:57;97386.19;;;15.38;90.11
16030;BME280;34770;49.272;11.070;2023-09-19T04:24:24;97411.72;;;15.61;89.67
16030;BME280;34770;49.272;11.070;2023-09-19T04:26:49;97348.19;;;15.29;90.01
16030;BME280;34770;49.272;11.070;2023-09-19T04:29:19;97388.94;;;15.46;89.21
16030;BME280;34770;49.272;11.070;2023-09-19T04:31:46;97341.19;;;15.26;88.49
16030;BME280;34770;49.272;11.070;2023-09-19T04:34:13;97411.28;;;15.81;88.43
16030;BME280;34770;49.272;11.070;2023-09-19T04:36:43;97308.88;;;15.07;88.01
16030;BME280;34770;49.272;11.070;2023-09-19T04:39:10;97308.53;;;15.02;88.28
16030;BME280;34770;49.272;11.070;2023-09-19T04:42:03;97344.31;;;15.15;88.46
16030;BME280;34770;49.272;11.070;2023-09-19T04:44:39;97359.28;;;15.19;88.32
16030;BME280;34770;49.272;11.070;2023-09-19T04:47:27;97402.59;;;15.46;88.23
16030;BME280;34770;49.272;11.070;2023-09-19T04:49:53;97337.88;;;15.00;88.22
16030;BME280;34770;49.272;11.070;2023-09-19T04:52:19;97370.75;;;15.15;88.13
16030;BME280;34770;49.272;11.070;2023-09-19T04:54:46;97437.19;;;15.54;88.28
16030;BME280;34770;49.272;11.070;2023-09-19T04:57:14;97423.03;;;15.42;88.64
16030;BME280;34770;49.272;11.070;2023-09-19T04:59:49;97432.28;;;15.49;88.69
16030;BME280;34770;49.272;11.070;2023-09-19T05:02:20;97411.00;;;15.21;88.72
16030;BME280;34770;49.272;11.070;2023-09-19T05:04:50;97453.94;;;15.43;89.31
16030;BME280;34770;49.272;11.070;2023-09-19T05:07:17;97453.44;;;15.31;89.66
16030;BME280;34770;49.272;11.070;2023-09-19T05:34:26;97474.06;;;15.34;91.20
16030;BME280;34770;49.272;11.070;2023-09-19T05:38:15;97472.88;;;15.36;89.92
16030;BME280;34770;49.272;11.070;2023-09-19T05:41:57;97483.94;;;15.59;90.83
16030;BME280;34770;49.272;11.070;2023-09-19T05:59:08;97428.50;;;15.50;88.08
16030;BME280;34770;49.272;11.070;2023-09-19T06:01:40;97447.75;;;15.65;88.06
16030;BME280;34770;49.272;11.070;2023-09-19T06:04:06;97490.28;;;15.98;88.05
16030;BME280;34770;49.272;11.070;2023-09-19T06:06:38;97490.13;;;16.00;87.86
16030;BME280;34770;49.272;11.070;2023-09-19T06:09:06;97499.00;;;16.02;86.77
16030;BME280;34770;49.272;11.070;2023-09-19T06:11:35;97512.03;;;16.22;85.74
16030;BME280;34770;49.272;11.070;2023-09-19T06:14:46;97517.47;;;16.31;85.26
16030;BME280;34770;49.272;11.070;2023-09-19T06:17:52;97524.31;;;16.27;86.86
16030;BME280;34770;49.272;11.070;2023-09-19T06:20:47;97534.72;;;16.31;88.43
16030;BME280;34770;49.272;11.070;2023-09-19T06:23:22;97538.97;;;16.34;88.53
16030;BME280;34770;49.272;11.070;2023-09-19T06:26:15;97543.94;;;16.38;87.59
16030;BME280;34770;49.272;11.070;2023-09-19T06:29:14;97501.53;;;16.34;87.71
16030;BME280;34770;49.272;11.070;2023-09-19T06:32:10;97517.53;;;16.53;84.70
16030;BME280;34770;49.272;11.070;2023-09-19T06:35:33;97535.53;;;16.70;84.40
16030;BME280;34770;49.272;11.070;2023-09-19T06:38:21;97553.47;;;16.81;84.26
16030;BME280;34770;49.272;11.070;2023-09-19T06:41:35;97548.88;;;16.73;83.27
16030;BME280;34770;49.272;11.070;2023-09-19T06:44:17;97555.19;;;16.74;82.85
16030;BME280;34770;49.272;11.070;2023-09-19T06:47:17;97557.00;;;16.90;83.03
16030;BME280;34770;49.272;11.070;2023-09-19T06:52:53;97553.34;;;16.97;82.56
16030;BME280;34770;49.272;11.070;2023-09-19T06:58:53;97577.31;;;16.95;82.51
16030;BME280;34770;49.272;11.070;2023-09-19T07:01:27;97560.31;;;17.00;82.36
16030;BME280;34770;49.272;11.070;2023-09-19T07:04:37;97554.06;;;16.91;81.31
16030;BME280;34770;49.272;11.070;2023-09-19T07:07:12;97567.47;;;17.09;81.65
16030;BME280;34770;49.272;11.070;2023-09-19T07:09:40;97560.81;;;17.03;81.34
16030;BME280;34770;49.272;11.070;2023-09-19T07:12:15;97558.03;;;17.11;81.58
16030;BME280;34770;49.272;11.070;2023-09-19T07:15:25;97570.91;;;17.25;80.91
16030;BME280;34770;49.272;11.070;2023-09-19T07:18:16;97566.09;;;17.27;81.19
16030;BME280;34770;49.272;11.070;2023-09-19T07:21:13;97557.19;;;17.48;79.83
16030;BME280;34770;49.272;11.070;2023-09-19T07:24:36;97569.38;;;17.98;78.40
16030;BME280;34770;49.272;11.070;2023-09-19T07:27:02;97567.41;;;18.21;75.95
16030;BME280;34770;49.272;11.070;2023-09-19T07:32:15;97585.09;;;18.33;75.72
16030;BME280;34770;49.272;11.070;2023-09-19T07:34:56;97586.44;;;18.08;75.41
16030;BME280;34770;49.272;11.070;2023-09-19T07:38:15;97585.44;;;17.86;76.76
16030;BME280;34770;49.272;11.070;2023-09-19T07:41:14;97578.34;;;17.62;78.02
16030;BME280;34770;49.272;11.070;2023-09-19T07:43:46;97583.66;;;17.78;79.27
16030;BME280;34770;49.272;11.070;2023-09-19T07:49:17;97581.75;;;17.79;79.92
16030;BME280;34770;49.272;11.070;2023-09-19T07:51:44;97594.84;;;18.06;78.12
16030;BME280;34770;49.272;11.070;2023-09-19T07:54:12;97597.47;;;18.14;75.76
16030;BME280;34770;49.272;11.070;2023-09-19T07:56:38;97591.91;;;18.08;76.07
16030;BME280;34770;49.272;11.070;2023-09-19T07:59:08;97592.47;;;18.03;76.51
16030;BME280;34770;49.272;11.070;2023-09-19T08:01:37;97591.50;;;18.11;79.09
16030;BME280;34770;49.272;11.070;2023-09-19T08:04:02;97583.47;;;18.09;77.33
16030;BME280;34770;49.272;11.070;2023-09-19T08:06:28;97591.13;;;18.14;74.85
16030;BME280;34770;49.272;11.070;2023-09-19T08:08:55;97600.50;;;18.34;74.27
16030;BME280;34770;49.272;11.070;2023-09-19T08:11:22;97596.16;;;18.39;74.92
16030;BME280;34770;49.272;11.070;2023-09-19T08:13:49;97599.47;;;18.35;73.74
16030;BME280;34770;49.272;11.070;2023-09-19T08:16:16;97609.59;;;18.34;74.29
16030;BME280;34770;49.272;11.070;2023-09-19T08:18:43;97603.63;;;18.31;73.22
16030;BME280;34770;49.272;11.070;2023-09-19T08:21:17;97607.97;;;18.11;72.89
16030;BME280;34770;49.272;11.070;2023-09-19T08:24:01;97618.09;;;18.39;71.98
16030;BME280;34770;49.272;11.070;2023-09-19T08:27:09;97619.88;;;18.47;71.22
16030;BME280;34770;49.272;11.070;2023-09-19T08:30:28;97623.22;;;18.42;69.63
16030;BME280;34770;49.272;11.070;2023-09-19T08:33:02;97631.63;;;18.26;71.29
16030;BME280;34770;49.272;11.070;2023-09-19T08:38:44;97632.50;;;18.56;69.96
16030;BME280;34770;49.272;11.070;2023-09-19T08:41:09;97631.88;;;19.04;68.37
16030;BME280;34770;49.272;11.070;2023-09-19T08:43:35;97623.84;;;19.24;67.12
16030;BME280;34770;49.272;11.070;2023-09-19T08:46:33;97623.09;;;18.94;67.37
16030;BME280;34770;49.272;11.070;2023-09-19T08:49:04;97629.44;;;19.52;65.28
16030;BME280;34770;49.272;11.070;2023-09-19T08:51:41;97623.97;;;20.01;64.59
16030;BME280;34770;49.272;11.070;2023-09-19T08:54:37;97629.34;;;19.88;61.85
16030;BME280;34770;49.272;11.070;2023-09-19T08:57:40;97631.13;;;19.74;60.33
16030;BME280;34770;49.272;11.070;2023-09-19T09:42:30;97658.38;;;19.48;58.64
16030;BME280;34770;49.272;11.070;2023-09-19T09:47:45;97609.38;;;19.79;58.53
16030;BME280;34770;49.272;11.070;2023-09-19T09:50:36;97609.97;;;19.11;58.00
16030;BME280;34770;49.272;11.070;2023-09-19T09:53:43;97644.56;;;19.84;57.69
16030;BME280;34770;49.272;11.070;2023-09-19T09:56:10;97668.91;;;19.87;57.65
16030;BME280;34770;49.272;11.070;2023-09-19T10:35:19;97660.25;;;21.07;49.96
16030;BME280;34770;49.272;11.070;2023-09-19T10:40:21;97678.47;;;21.56;52.94
16030;BME280;34770;49.272;11.070;2023-09-19T10:42:52;97661.28;;;21.73;51.53
16030;BME280;34770;49.272;11.070;2023-09-19T10:45:19;97672.34;;;21.80;48.55
16030;BME280;34770;49.272;11.070;2023-09-19T10:47:47;97668.78;;;21.99;51.27
16030;BME280;34770;49.272;11.070;2023-09-19T10:50:21;97663.06;;;22.20;49.08
16030;BME280;34770;49.272;11.070;2023-09-19T10:55:37;97658.06;;;21.50;51.97
16030;BME280;34770;49.272;11.070;2023-09-19T10:58:03;97669.16;;;21.09;52.84
16030;BME280;34770;49.272;11.070;2023-09-19T11:25:45;97668.50;;;20.39;53.72
16030;BME280;34770;49.272;11.070;2023-09-19T11:30:51;97650.72;;;20.35;55.92
16030;BME280;34770;49.272;11.070;2023-09-19T11:36:42;97655.38;;;20.41;52.38
16030;BME280;34770;49.272;11.070;2023-09-19T11:42:59;97665.41;;;20.20;53.07
16030;BME280;34770;49.272;11.070;2023-09-19T11:46:54;97636.09;;;19.85;53.16
16030;BME280;34770;49.272;11.070;2023-09-19T11:49:31;97666.38;;;20.34;53.29
16030;BME280;34770;49.272;11.070;2023-09-19T11:51:58;97653.72;;;20.18;53.26
16030;BME280;34770;49.272;11.070;2023-09-19T11:54:39;97643.72;;;20.32;51.71
16030;BME280;34770;49.272;11.070;2023-09-19T11:57:11;97648.78;;;20.69;52.03
16030;BME280;34770;49.272;11.070;2023-09-19T12:03:04;97648.72;;;20.97;51.24
16030;BME280;34770;49.272;11.070;2023-09-19T12:05:33;97626.81;;;20.76;51.01
16030;BME280;34770;49.272;11.070;2023-09-19T12:08:43;97642.78;;;21.41;49.40
16030;BME280;34770;49.272;11.070;2023-09-19T12:11:19;97631.22;;;21.91;49.55
16030;BME280;34770;49.272;11.070;2023-09-19T12:13:47;97602.94;;;22.35;50.47
16030;BME280;34770;49.272;11.070;2023-09-19T12:16:20;97638.94;;;22.93;47.11
16030;BME280;34770;49.272;11.070;2023-09-19T12:18:50;97638.53;;;22.83;46.91
16030;BME280;34770;49.272;11.070;2023-09-19T12:24:27;97608.94;;;22.06;45.21
16030;BME280;34770;49.272;11.070;2023-09-19T12:26:59;97599.78;;;21.86;46.29
16030;BME280;34770;49.272;11.070;2023-09-19T12:29:27;97608.28;;;21.91;46.73
16030;BME280;34770;49.272;11.070;2023-09-19T12:31:57;97625.44;;;22.45;45.54
16030;BME280;34770;49.272;11.070;2023-09-19T12:34:26;97634.78;;;22.44;44.76
16030;BME280;34770;49.272;11.070;2023-09-19T12:37:21;97630.06;;;22.71;44.59
16030;BME280;34770;49.272;11.070;2023-09-19T12:39:51;97613.06;;;22.61;44.25
16030;BME280;34770;49.272;11.070;2023-09-19T12:42:23;97614.38;;;22.65;44.38
16030;BME280;34770;49.272;11.070;2023-09-19T12:44:51;97626.97;;;23.05;43.78
16030;BME280;34770;49.272;11.070;2023-09-19T12:47:20;97619.25;;;22.57;44.57
16030;BME280;34770;49.272;11.070;2023-09-19T12:50:11;97620.28;;;23.26;43.04
16030;BME280;34770;49.272;11.070;2023-09-19T12:52:47;97626.53;;;23.08;44.37
16030;BME280;34770;49.272;11.070;2023-09-19T13:00:39;97609.72;;;22.26;45.08
16030;BME280;34770;49.272;11.070;2023-09-19T13:06:00;97625.44;;;22.65;45.93
16030;BME280;34770;49.272;11.070;2023-09-19T13:08:28;97626.53;;;22.31;46.41
16030;BME280;34770;49.272;11.070;2023-09-19T13:13:34;97619.19;;;22.89;44.81
16030;BME280;34770;49.272;11.070;2023-09-19T13:19:05;97617.41;;;22.11;45.44
16030;BME280;34770;49.272;11.070;2023-09-19T13:21:33;97613.94;;;22.55;45.16
16030;BME280;34770;49.272;11.070;2023-09-19T13:24:21;97607.97;;;22.78;45.10
16030;BME280;34770;49.272;11.070;2023-09-19T13:26:48;97605.19;;;23.22;44.20
16030;BME280;34770;49.272;11.070;2023-09-19T13:29:13;97599.44;;;23.93;42.97
16030;BME280;34770;49.272;11.070;2023-09-19T13:31:45;97586.16;;;24.01;42.60
16030;BME280;34770;49.272;11.070;2023-09-19T13:34:11;97588.94;;;24.01;42.82
16030;BME280;34770;49.272;11.070;2023-09-19T13:36:36;97569.22;;;24.41;40.10
16030;BME280;34770;49.272;11.070;2023-09-19T13:39:02;97596.50;;;23.63;41.77
16030;BME280;34770;49.272;11.070;2023-09-19T13:41:30;97580.38;;;23.16;44.04
16030;BME280;34770;49.272;11.070;2023-09-19T13:43:57;97590.66;;;24.27;43.85
16030;BME280;34770;49.272;11.070;2023-09-19T13:46:23;97590.81;;;23.51;43.13
16030;BME280;34770;49.272;11.070;2023-09-19T13:48:51;97581.38;;;24.76;42.00
16030;BME280;34770;49.272;11.070;2023-09-19T13:51:20;97589.00;;;24.44;40.60
16030;BME280;34770;49.272;11.070;2023-09-19T13:53:48;97577.41;;;23.55;42.09
16030;BME280;34770;49.272;11.070;2023-09-19T13:56:13;97583.53;;;23.88;41.85
16030;BME280;34770;49.272;11.070;2023-09-19T13:58:39;97582.94;;;24.72;40.44
16030;BME280;34770;49.272;11.070;2023-09-19T14:01:07;97582.56;;;24.87;39.46
16030;BME280;34770;49.272;11.070;2023-09-19T14:03:37;97584.88;;;24.90;40.41
16030;BME280;34770;49.272;11.070;2023-09-19T14:06:02;97580.44;;;25.18;39.85
16030;BME280;34770;49.272;11.070;2023-09-19T14:08:28;97579.44;;;25.31;39.25
16030;BME280;34770;49.272;11.070;2023-09-19T14:10:54;97584.59;;;25.57;41.06
16030;BME280;34770;49.272;11.070;2023-09-19T14:13:19;97590.25;;;24.85;40.34
16030;BME280;34770;49.272;11.070;2023-09-19T14:15:45;97550.91;;;24.94;40.10
16030;BME280;34770;49.272;11.070;2023-09-19T14:18:11;97577.78;;;24.94;39.39
16030;BME280;34770;49.272;11.070;2023-09-19T14:20:38;97590.66;;;24.27;40.34
16030;BME280;34770;49.272;11.070;2023-09-19T14:23:06;97575.50;;;24.05;40.99
16030;BME280;34770;49.272;11.070;2023-09-19T14:25:34;97577.53;;;25.13;39.08
16030;BME280;34770;49.272;11.070;2023-09-19T14:28:00;97580.09;;;25.15;40.13
16030;BME280;34770;49.272;11.070;2023-09-19T14:30:25;97578.69;;;25.54;39.34
16030;BME280;34770;49.272;11.070;2023-09-19T14:32:51;97587.94;;;26.19;37.91
16030;BME280;34770;49.272;11.070;2023-09-19T14:35:16;97558.78;;;25.27;38.09
16030;BME280;34770;49.272;11.070;2023-09-19T14:37:42;97576.59;;;25.79;38.21
16030;BME280;34770;49.272;11.070;2023-09-19T14:40:09;97565.31;;;26.50;35.62
16030;BME280;34770;49.272;11.070;2023-09-19T14:42:38;97576.06;;;26.81;36.19
16030;BME280;34770;49.272;11.070;2023-09-19T14:45:04;97561.47;;;26.51;36.16
16030;BME280;34770;49.272;11.070;2023-09-19T14:47:30;97578.69;;;26.07;36.73
16030;BME280;34770;49.272;11.070;2023-09-19T14:49:57;97556.63;;;26.23;37.14
16030;BME280;34770;49.272;11.070;2023-09-19T14:52:23;97559.84;;;26.90;35.90
16030;BME280;34770;49.272;11.070;2023-09-19T14:54:51;97552.69;;;27.05;35.53
16030;BME280;34770;49.272;11.070;2023-09-19T14:57:16;97560.81;;;26.84;35.48
16030;BME280;34770;49.272;11.070;2023-09-19T14:59:42;97553.44;;;25.85;36.67
16030;BME280;34770;49.272;11.070;2023-09-19T15:02:07;97549.13;;;25.00;37.97
16030;BME280;34770;49.272;11.070;2023-09-19T15:04:33;97554.78;;;25.82;36.79
16030;BME280;34770;49.272;11.070;2023-09-19T15:07:01;97559.78;;;25.62;36.76
16030;BME280;34770;49.272;11.070;2023-09-19T15:09:28;97550.50;;;25.68;37.17
16030;BME280;34770;49.272;11.070;2023-09-19T15:11:54;97554.34;;;26.55;35.80
16030;BME280;34770;49.272;11.070;2023-09-19T15:14:20;97555.41;;;26.89;35.31
16030;BME280;34770;49.272;11.070;2023-09-19T15:16:46;97543.53;;;26.93;35.54
16030;BME280;34770;49.272;11.070;2023-09-19T15:19:11;97551.94;;;27.50;35.29
16030;BME280;34770;49.272;11.070;2023-09-19T15:21:37;97546.25;;;27.90;34.90
16030;BME280;34770;49.272;11.070;2023-09-19T15:24:02;97551.00;;;28.06;33.96
16030;BME280;34770;49.272;11.070;2023-09-19T15:26:28;97557.81;;;28.65;35.38
16030;BME280;34770;49.272;11.070;2023-09-19T15:28:55;97532.78;;;29.35;32.29
16030;BME280;34770;49.272;11.070;2023-09-19T15:31:21;97530.03;;;30.20;32.36
16030;BME280;34770;49.272;11.070;2023-09-19T15:33:47;97541.09;;;30.10;33.13
16030;BME280;34770;49.272;11.070;2023-09-19T15:36:13;97534.03;;;29.44;31.35
16030;BME280;34770;49.272;11.070;2023-09-19T15:39:08;97547.59;;;29.36;33.10
16030;BME280;34770;49.272;11.070;2023-09-19T15:41:40;97553.22;;;28.04;33.37
16030;BME280;34770;49.272;11.070;2023-09-19T15:44:14;97543.00;;;27.08;35.29
16030;BME280;34770;49.272;11.070;2023-09-19T15:46:40;97545.47;;;25.88;36.49
16030;BME280;34770;49.272;11.070;2023-09-19T15:49:06;97542.28;;;25.62;36.68
16030;BME280;34770;49.272;11.070;2023-09-19T15:51:32;97544.22;;;24.84;38.39
16030;BME280;34770;49.272;11.070;2023-09-19T15:53:58;97534.75;;;25.21;38.37
16030;BME280;34770;49.272;11.070;2023-09-19T15:56:25;97530.78;;;24.26;39.29
16030;BME280;34770;49.272;11.070;2023-09-19T15:58:53;97535.72;;;24.42;42.57
16030;BME280;34770;49.272;11.070;2023-09-19T16:01:22;97540.03;;;24.74;40.56
16030;BME280;34770;49.272;11.070;2023-09-19T16:03:52;97538.22;;;24.87;43.47
16030;BME280;34770;49.272;11.070;2023-09-19T16:06:26;97525.66;;;24.66;45.13
16030;BME280;34770;49.272;11.070;2023-09-19T16:08:53;97549.97;;;24.28;45.22
16030;BME280;34770;49.272;11.070;2023-09-19T16:11:20;97516.63;;;23.42;49.54
16030;BME280;34770;49.272;11.070;2023-09-19T16:13:47;97544.41;;;22.78;50.13
16030;BME280;34770;49.272;11.070;2023-09-19T16:16:14;97547.25;;;22.65;50.81
16030;BME280;34770;49.272;11.070;2023-09-19T16:18:54;97553.03;;;22.24;53.25
16030;BME280;34770;49.272;11.070;2023-09-19T16:21:23;97553.69;;;22.19;54.22
16030;BME280;34770;49.272;11.070;2023-09-19T16:23:50;97553.69;;;21.34;55.99
16030;BME280;34770;49.272;11.070;2023-09-19T16:26:17;97541.78;;;21.20;57.47
16030;BME280;34770;49.272;11.070;2023-09-19T16:28:47;97545.59;;;20.59;59.54
16030;BME280;34770;49.272;11.070;2023-09-19T16:31:14;97538.88;;;20.27;58.57
16030;BME280;34770;49.272;11.070;2023-09-19T16:33:41;97537.63;;;20.30;60.51
16030;BME280;34770;49.272;11.070;2023-09-19T16:36:11;97546.50;;;19.97;61.54
16030;BME280;34770;49.272;11.070;2023-09-19T16:38:38;97515.81;;;19.66;61.56
16030;BME280;34770;49.272;11.070;2023-09-19T16:41:11;97541.72;;;19.50;62.33
16030;BME280;34770;49.272;11.070;2023-09-19T16:43:56;97530.66;;;19.23;63.33
16030;BME280;34770;49.272;11.070;2023-09-19T16:46:23;97540.31;;;19.19;64.75
16030;BME280;34770;49.272;11.070;2023-09-19T16:48:49;97531.97;;;19.05;65.03
16030;BME280;34770;49.272;11.070;2023-09-19T16:51:44;97552.13;;;18.77;64.87
16030;BME280;34770;49.272;11.070;2023-09-19T16:57:42;97520.09;;;18.48;65.61
16030;BME280;34770;49.272;11.070;2023-09-19T17:00:35;97549.25;;;18.49;66.08
16030;BME280;34770;49.272;11.070;2023-09-19T17:06:32;97543.16;;;18.39;66.61
16030;BME280;34770;49.272;11.070;2023-09-19T17:09:53;97561.72;;;18.22;68.79
16030;BME280;34770;49.272;11.070;2023-09-19T17:13:25;97522.47;;;17.63;69.20
16030;BME280;34770;49.272;11.070;2023-09-19T17:22:30;97524.34;;;17.63;69.20
16030;BME280;34770;49.272;11.070;2023-09-19T18:37:08;97595.53;;;16.41;72.96
16030;BME280;34770;49.272;11.070;2023-09-19T18:39:43;97594.66;;;16.41;72.85
16030;BME280;34770;49.272;11.070;2023-09-19T18:42:30;97605.56;;;16.49;72.72
16030;BME280;34770;49.272;11.070;2023-09-19T18:45:28;97585.34;;;16.27;73.18
16030;BME280;34770;49.272;11.070;2023-09-19T18:48:20;97600.84;;;16.35;73.17
16030;BME280;34770;49.272;11.070;2023-09-19T18:51:14;97609.53;;;15.99;75.13
16030;BME280;34770;49.272;11.070;2023-09-19T18:53:52;97594.72;;;15.70;76.14
16030;BME280;34770;49.272;11.070;2023-09-19T18:56:21;97610.25;;;15.77;76.62
16030;BME280;34770;49.272;11.070;2023-09-19T18:58:57;97591.97;;;15.78;75.95
16030;BME280;34770;49.272;11.070;2023-09-19T19:01:27;97596.41;;;15.79;76.24
16030;BME280;34770;49.272;11.070;2023-09-19T19:03:54;97600.84;;;15.88;76.59
16030;BME280;34770;49.272;11.070;2023-09-19T19:06:21;97601.38;;;15.67;76.36
16030;BME280;34770;49.272;11.070;2023-09-19T19:08:53;97611.44;;;15.83;76.66
16030;BME280;34770;49.272;11.070;2023-09-19T19:11:28;97611.41;;;15.91;76.12
16030;BME280;34770;49.272;11.070;2023-09-19T19:13:58;97609.53;;;15.91;76.09
16030;BME280;34770;49.272;11.070;2023-09-19T19:16:37;97606.00;;;15.75;75.99
16030;BME280;34770;49.272;11.070;2023-09-19T19:19:06;97557.69;;;15.19;76.83
16030;BME280;34770;49.272;11.070;2023-09-19T19:21:33;97612.78;;;15.38;76.90
16030;BME280;34770;49.272;11.070;2023-09-19T19:24:02;97609.88;;;15.07;78.71
16030;BME280;34770;49.272;11.070;2023-09-19T19:26:29;97584.81;;;14.96;78.84
16030;BME280;34770;49.272;11.070;2023-09-19T19:28:57;97605.47;;;15.06;78.25
16030;BME280;34770;49.272;11.070;2023-09-19T19:31:29;97619.78;;;15.17;77.92
16030;BME280;34770;49.272;11.070;2023-09-19T19:33:59;97619.97;;;15.07;78.48
16030;BME280;34770;49.272;11.070;2023-09-19T19:36:27;97607.47;;;14.88;79.26
16030;BME280;34770;49.272;11.070;2023-09-19T19:38:53;97622.50;;;14.92;78.26
16030;BME280;34770;49.272;11.070;2023-09-19T19:41:21;97609.84;;;14.83;78.62
16030;BME280;34770;49.272;11.070;2023-09-19T19:43:47;97626.63;;;15.13;78.23
16030;BME280;34770;49.272;11.070;2023-09-19T19:46:14;97613.13;;;15.03;78.56
16030;BME280;34770;49.272;11.070;2023-09-19T19:48:42;97607.66;;;15.11;78.56
16030;BME280;34770;49.272;11.070;2023-09-19T19:51:10;97639.59;;;15.27;77.62
16030;BME280;34770;49.272;11.070;2023-09-19T19:53:36;97633.94;;;15.12;77.86
16030;BME280;34770;49.272;11.070;2023-09-19T19:56:03;97649.47;;;15.28;77.72
16030;BME280;34770;49.272;11.070;2023-09-19T19:58:33;97653.75;;;15.30;77.86
16030;BME280;34770;49.272;11.070;2023-09-19T20:01:00;97640.75;;;15.16;77.71
16030;BME280;34770;49.272;11.070;2023-09-19T20:03:26;97645.00;;;15.02;77.85
16030;BME280;34770;49.272;11.070;2023-09-19T20:05:53;97641.59;;;14.92;78.61
16030;BME280;34770;49.272;11.070;2023-09-19T20:08:20;97649.91;;;14.83;78.40
16030;BME280;34770;49.272;11.070;2023-09-19T20:10:45;97641.16;;;14.63;79.02
16030;BME280;34770;49.272;11.070;2023-09-19T20:13:11;97629.44;;;14.79;79.09
16030;BME280;34770;49.272;11.070;2023-09-19T20:15:39;97633.88;;;14.80;79.37
16030;BME280;34770;49.272;11.070;2023-09-19T20:18:09;97641.38;;;14.78;77.36
16030;BME280;34770;49.272;11.070;2023-09-19T20:20:38;97651.59;;;14.76;78.48
16030;BME280;34770;49.272;11.070;2023-09-19T20:23:04;97647.16;;;14.75;78.64
16030;BME280;34770;49.272;11.070;2023-09-19T20:25:33;97643.53;;;14.58;79.38
16030;BME280;34770;49.272;11.070;2023-09-19T20:27:59;97655.09;;;14.52;78.99
16030;BME280;34770;49.272;11.070;2023-09-19T20:30:25;97658.00;;;14.50;80.02
16030;BME280;34770;49.272;11.070;2023-09-19T20:32:50;97642.84;;;14.56;79.82
16030;BME280;34770;49.272;11.070;2023-09-19T20:35:15;97650.84;;;14.58;79.66
16030;BME280;34770;49.272;11.070;2023-09-19T20:37:41;97665.91;;;14.70;79.24
16030;BME280;34770;49.272;11.070;2023-09-19T20:40:08;97641.78;;;14.49;79.30
16030;BME280;34770;49.272;11.070;2023-09-19T20:42:38;97652.44;;;14.34;79.70